Big Flats, Wisconsin
Current Conditions -  °F | °C
As of 7:58 PM on Sunday 21 Dec 2014 (Local Time) from KVOK Reporting Station
Overcast Overcast  
Wind Chill: 29°   Ceiling: 900
Heat Index: 36°   Visibility: 9mi
Dew Point: 36°   Wind: 9mph
Humidity: 100%   Direction: 140°SE
Pressure: 29.89"   Gusts: NA
Location:  44.0724°N, 89.9031°W
Report Text: KVOK 220158Z AUTO 14008KT 9SM R27/5500FT OVC009 02/02 A2989 RMK AO2 SLP134 T00220022
Loading
Personal Weather Stations






























Interactive Weather Map New forecast layout! Learn more

10-Day Weather Forecast

Advertisements
Track Severe Weather on mobile